createdAt,value
2022-09-09T00:04:10.429Z,12.64
2022-09-09T00:09:40.990Z,12.6
2022-09-09T00:14:48.784Z,12.64
2022-09-09T00:19:56.439Z,12.59
2022-09-09T00:25:04.107Z,12.54
2022-09-09T00:30:12.339Z,12.53
2022-09-09T00:35:19.862Z,12.51
2022-09-09T00:40:28.282Z,12.46
2022-09-09T00:45:35.718Z,12.33
2022-09-09T00:50:44.013Z,12.24
2022-09-09T00:55:51.349Z,12.12
2022-09-09T01:00:58.669Z,12.08
2022-09-09T01:06:06.332Z,12.08
2022-09-09T01:11:13.908Z,12.12
2022-09-09T01:16:22.065Z,12.0
2022-09-09T01:21:29.406Z,11.92
2022-09-09T01:26:36.381Z,11.82
2022-09-09T01:31:43.578Z,11.84
2022-09-09T01:36:50.876Z,11.83
2022-09-09T01:41:58.331Z,11.78
2022-09-09T01:47:05.853Z,11.8
2022-09-09T01:52:14.889Z,11.82
2022-09-09T01:57:22.234Z,11.78
2022-09-09T02:02:30.411Z,11.74
2022-09-09T02:07:37.204Z,11.71
2022-09-09T02:12:45.518Z,11.72
2022-09-09T02:17:54.506Z,11.76
2022-09-09T02:23:02.602Z,11.74
2022-09-09T02:28:09.785Z,11.8
2022-09-09T02:33:16.574Z,11.78
2022-09-09T02:38:24.541Z,11.75
2022-09-09T02:43:31.902Z,11.71
2022-09-09T02:48:39.363Z,11.71
2022-09-09T02:53:47.185Z,11.66
2022-09-09T02:58:54.383Z,11.63
2022-09-09T03:04:08.472Z,11.52
2022-09-09T03:09:15.100Z,11.54
2022-09-09T03:14:24.493Z,11.57
2022-09-09T03:19:32.671Z,11.55
2022-09-09T03:24:39.425Z,11.58
2022-09-09T03:29:46.479Z,11.52
2022-09-09T03:34:53.834Z,11.51
2022-09-09T03:40:00.269Z,11.38
2022-09-09T03:45:09.532Z,11.38
2022-09-09T03:50:17.269Z,11.36
2022-09-09T03:55:24.896Z,11.3
2022-09-09T04:00:37.982Z,11.34
2022-09-09T04:05:45.610Z,11.18
2022-09-09T04:10:52.019Z,11.16
2022-09-09T04:16:00.669Z,11.28
2022-09-09T04:21:07.501Z,11.42
2022-09-09T04:26:16.279Z,11.25
2022-09-09T04:31:24.755Z,11.26
2022-09-09T04:36:33.029Z,11.32
2022-09-09T04:41:41.717Z,11.28
2022-09-09T04:46:55.109Z,11.16
2022-09-09T04:52:01.862Z,10.97
2022-09-09T04:57:09.377Z,10.84
2022-09-09T05:02:16.582Z,10.82
2022-09-09T05:07:23.740Z,11.1
2022-09-09T05:12:31.859Z,11.24
2022-09-09T05:17:39.453Z,11.26
2022-09-09T05:22:46.648Z,11.38
2022-09-09T05:27:54.333Z,11.55
2022-09-09T05:33:02.014Z,11.8
2022-09-09T05:38:09.523Z,12.17
2022-09-09T05:43:16.122Z,12.76
2022-09-09T05:48:24.815Z,13.0
2022-09-09T05:53:31.677Z,13.3
2022-09-09T05:58:39.274Z,13.48
2022-09-09T06:03:47.160Z,13.76
2022-09-09T06:08:54.622Z,14.0
2022-09-09T06:14:01.838Z,14.29
2022-09-09T06:19:09.090Z,14.76
2022-09-09T06:24:16.663Z,15.44
2022-09-09T06:29:23.836Z,15.56
2022-09-09T06:34:31.194Z,16.58
2022-09-09T06:39:38.481Z,17.94
2022-09-09T06:44:46.308Z,20.11
2022-09-09T06:49:53.504Z,22.76
2022-09-09T06:55:00.850Z,24.36
2022-09-09T07:00:08.972Z,26.08
2022-09-09T07:05:17.052Z,28.22
2022-09-09T07:11:55.818Z,28.7
2022-09-09T07:17:01.863Z,27.86
2022-09-09T07:22:09.212Z,28.42
2022-09-09T07:27:16.166Z,30.8
2022-09-09T07:32:23.544Z,27.85
2022-09-09T07:37:30.883Z,24.28
2022-09-09T07:42:38.767Z,21.96
2022-09-09T07:49:17.095Z,20.44
2022-09-09T07:54:24.096Z,19.76
2022-09-09T07:59:32.053Z,19.39
2022-09-09T08:04:39.530Z,18.98
2022-09-09T08:09:48.091Z,18.7
2022-09-09T08:14:55.292Z,18.66
2022-09-09T08:20:02.815Z,18.68
2022-09-09T08:25:10.619Z,18.76
2022-09-09T08:30:19.608Z,19.03
2022-09-09T08:35:26.915Z,19.38
2022-09-09T08:40:35.410Z,19.89
2022-09-09T08:45:44.140Z,20.86
2022-09-09T08:50:56.503Z,21.99
2022-09-09T08:56:04.978Z,21.92
2022-09-09T09:01:13.063Z,21.82
2022-09-09T09:06:21.455Z,21.8
2022-09-09T09:11:29.615Z,21.85
2022-09-09T09:16:37.858Z,21.44
2022-09-09T09:21:46.512Z,21.28
2022-09-09T09:26:54.425Z,20.86
2022-09-09T09:32:01.494Z,20.83
2022-09-09T09:37:09.862Z,20.86
2022-09-09T09:42:18.334Z,21.17
2022-09-09T09:47:26.699Z,21.52
2022-09-09T09:52:35.214Z,22.06
2022-09-09T09:57:43.130Z,22.9
2022-09-09T10:02:50.681Z,23.72
2022-09-09T10:07:57.691Z,23.89
2022-09-09T10:13:05.537Z,23.96
2022-09-09T10:18:13.492Z,23.9
2022-09-09T10:23:20.909Z,24.36
2022-09-09T10:28:29.017Z,25.51
2022-09-09T10:33:35.718Z,25.23
2022-09-09T10:38:43.424Z,24.98
2022-09-09T10:43:50.099Z,24.4
2022-09-09T10:48:58.897Z,24.0
2022-09-09T10:54:06.300Z,23.69
2022-09-09T10:59:14.413Z,23.36
2022-09-09T11:04:22.255Z,23.15
2022-09-09T11:09:30.458Z,22.98
2022-09-09T11:14:37.449Z,23.06
2022-09-09T11:19:45.346Z,22.98
2022-09-09T11:24:53.847Z,23.92
2022-09-09T11:30:02.456Z,24.53
2022-09-09T11:35:10.251Z,24.38
2022-09-09T11:40:17.891Z,23.86
2022-09-09T11:45:25.372Z,23.9
2022-09-09T11:50:33.746Z,24.76
2022-09-09T11:55:41.651Z,26.88
2022-09-09T12:00:50.004Z,26.6
2022-09-09T12:05:57.337Z,26.07
2022-09-09T12:11:05.124Z,25.2
2022-09-09T12:16:13.057Z,24.44
2022-09-09T12:21:20.253Z,23.78
2022-09-09T12:26:26.781Z,23.14
2022-09-09T12:31:33.660Z,22.43
2022-09-09T12:36:40.537Z,21.9
2022-09-09T12:41:48.185Z,21.53
2022-09-09T12:47:01.258Z,21.18
2022-09-09T12:52:09.294Z,21.06
2022-09-09T12:57:17.058Z,20.97
2022-09-09T13:02:24.323Z,21.04
2022-09-09T13:07:33.082Z,21.25
2022-09-09T13:12:41.564Z,21.26
2022-09-09T13:17:49.728Z,21.53
2022-09-09T13:22:57.856Z,21.4
2022-09-09T13:28:05.513Z,21.16
2022-09-09T13:33:13.226Z,20.9
2022-09-09T13:40:13.132Z,20.44
2022-09-09T13:45:19.761Z,20.24
2022-09-09T13:50:27.393Z,19.99
2022-09-09T13:55:35.627Z,19.73
2022-09-09T14:00:43.945Z,19.52
2022-09-09T14:05:50.977Z,19.36
2022-09-09T14:10:58.579Z,19.14
2022-09-09T14:16:05.745Z,18.64
2022-09-09T14:21:12.556Z,18.23
2022-09-09T14:26:20.839Z,17.88
2022-09-09T14:31:27.573Z,17.58
2022-09-09T14:36:34.726Z,17.36
2022-09-09T14:41:43.043Z,17.19
2022-09-09T14:46:51.367Z,17.07
2022-09-09T14:51:58.995Z,16.92
2022-09-09T14:57:06.865Z,16.84
2022-09-09T15:02:15.138Z,16.76
2022-09-09T15:07:44.956Z,16.7
2022-09-09T15:12:52.700Z,16.65
2022-09-09T15:17:59.362Z,16.62
2022-09-09T15:23:06.489Z,16.44
2022-09-09T15:28:14.924Z,16.33
2022-09-09T15:33:23.285Z,16.3
2022-09-09T15:38:31.254Z,16.2
2022-09-09T15:43:37.825Z,16.16
2022-09-09T15:48:45.703Z,16.2
2022-09-09T15:53:52.862Z,16.14
2022-09-09T15:59:00.115Z,16.12
2022-09-09T16:04:07.951Z,16.08
2022-09-09T16:09:16.008Z,16.02
2022-09-09T16:14:23.687Z,16.0
2022-09-09T16:19:31.401Z,16.03
2022-09-09T16:24:39.356Z,16.02
2022-09-09T16:29:47.657Z,16.04
2022-09-09T16:34:54.950Z,16.0
2022-09-09T16:40:02.146Z,15.97
2022-09-09T16:45:10.006Z,15.93
2022-09-09T16:50:17.435Z,15.82
2022-09-09T16:55:25.535Z,15.7
2022-09-09T17:00:32.907Z,15.62
2022-09-09T17:05:40.088Z,15.55
2022-09-09T17:10:47.614Z,15.44
2022-09-09T17:15:56.322Z,15.38
2022-09-09T17:21:03.577Z,15.33
2022-09-09T17:26:11.924Z,15.32
2022-09-09T17:31:20.407Z,15.28
2022-09-09T17:36:28.565Z,15.24
2022-09-09T17:41:35.606Z,15.22
2022-09-09T17:46:42.771Z,15.32
2022-09-09T17:51:51.113Z,15.34
2022-09-09T17:56:57.889Z,15.34
2022-09-09T18:02:05.658Z,15.3
2022-09-09T18:07:15.931Z,15.24
2022-09-09T18:12:23.980Z,15.19
2022-09-09T18:17:31.767Z,15.16
2022-09-09T18:22:40.465Z,15.14
2022-09-09T18:27:48.082Z,15.19
2022-09-09T18:32:55.778Z,15.2
2022-09-09T18:38:03.100Z,15.21
2022-09-09T18:43:09.654Z,15.2
2022-09-09T18:48:17.582Z,15.21
2022-09-09T18:53:25.290Z,15.26
2022-09-09T18:58:33.496Z,15.3
2022-09-09T19:03:40.377Z,15.22
2022-09-09T19:08:48.244Z,15.13
2022-09-09T19:13:55.444Z,15.1
2022-09-09T19:19:04.016Z,15.06
2022-09-09T19:24:11.719Z,14.93
2022-09-09T19:29:20.457Z,14.88
2022-09-09T19:34:27.949Z,14.88
2022-09-09T19:39:35.893Z,14.89
2022-09-09T19:44:43.313Z,14.9
2022-09-09T19:49:50.303Z,14.85
2022-09-09T19:54:58.253Z,14.84
2022-09-09T20:00:06.087Z,14.85
2022-09-09T20:05:13.841Z,14.89
2022-09-09T20:10:21.709Z,14.93
2022-09-09T20:15:29.498Z,14.96
2022-09-09T20:20:37.194Z,14.93
2022-09-09T20:25:45.210Z,14.84
2022-09-09T20:30:54.265Z,14.67
2022-09-09T20:36:00.888Z,14.57
2022-09-09T20:41:08.877Z,14.54
2022-09-09T20:46:16.622Z,14.53
2022-09-09T20:51:23.184Z,14.52
2022-09-09T20:56:31.243Z,14.49
2022-09-09T21:01:38.160Z,14.56
2022-09-09T21:06:46.402Z,14.59
2022-09-09T21:11:53.818Z,14.46
2022-09-09T21:17:02.735Z,14.32
2022-09-09T21:22:10.649Z,14.19
2022-09-09T21:27:17.376Z,14.18
2022-09-09T21:32:25.212Z,14.17
2022-09-09T21:37:32.886Z,14.19
2022-09-09T21:42:41.354Z,14.28
2022-09-09T21:47:48.696Z,14.33
2022-09-09T21:52:56.671Z,14.36
2022-09-09T21:58:04.340Z,14.4
2022-09-09T22:03:12.072Z,14.48
2022-09-09T22:08:19.440Z,14.49
2022-09-09T22:13:27.250Z,14.46
2022-09-09T22:18:35.236Z,14.44
2022-09-09T22:23:42.409Z,14.4
2022-09-09T22:28:50.120Z,14.38
2022-09-09T22:33:57.089Z,14.4
2022-09-09T22:39:03.987Z,14.36
2022-09-09T22:44:12.172Z,14.32
2022-09-09T22:49:20.935Z,14.28
2022-09-09T22:54:28.058Z,14.26
2022-09-09T22:59:35.836Z,14.26
2022-09-09T23:04:42.461Z,14.28
2022-09-09T23:09:51.736Z,14.28
2022-09-09T23:14:59.569Z,14.32
2022-09-09T23:20:07.407Z,14.32
2022-09-09T23:25:15.029Z,14.28
2022-09-09T23:30:23.720Z,14.28
2022-09-09T23:35:30.775Z,14.26
2022-09-09T23:40:39.289Z,14.2
2022-09-09T23:45:46.458Z,14.16
2022-09-09T23:50:54.624Z,14.16
2022-09-09T23:56:02.890Z,14.1
